BCT809 ZMCK-UAAA
Flight info
| Callsign | BCT809 |
|---|---|
| Flight time | 3h 31m |
| Altitude | 36100 |
| Route | CK111 DCT LEGUM DCT LEDED/K0820S1160 DCT IBIRA DCT IGOMA DCT VGA DCT UENCH DCT NIRAV DCT SALMO DCT BAMAN/K0822F380 DCT JRK |
| Aircraft | A319/M-SDE3FGHIRWY/LB1 |
Departure
| Time | 2026-04-22 16:58 |
|---|---|
| Airport | Ulaanbaatar Chinggis Khaan International Airport (ZMCK) |
Arrival
| Time | 2026-04-22 20:29 |
|---|---|
| Airport | Almaty International Airport (UAAA) |
| Time | Latitude | Longitude | Altitude | Speed | Heading |
|---|---|---|---|---|---|
| 2026-04-22 16:38 | 47.65077 | 106.82053 | 4502 ft | 0 kts | 49° |
| 2026-04-22 16:47 | 47.65075 | 106.82050 | 4502 ft | 3 kts | 48° |
| 2026-04-22 16:48 | 47.65057 | 106.82023 | 4502 ft | 4 kts | 39° |
| 2026-04-22 16:48 | 47.65035 | 106.82000 | 4501 ft | 4 kts | 27° |
| 2026-04-22 16:48 | 47.65010 | 106.81985 | 4504 ft | 4 kts | 11° |
| 2026-04-22 16:48 | 47.64984 | 106.81983 | 4503 ft | 4 kts | 346° |
| 2026-04-22 16:49 | 47.64961 | 106.81999 | 4504 ft | 4 kts | 304° |
| 2026-04-22 16:49 | 47.64956 | 106.82012 | 4502 ft | 0 kts | 284° |
| 2026-04-22 16:51 | 47.64962 | 106.81981 | 4502 ft | 7 kts | 284° |
| 2026-04-22 16:52 | 47.64979 | 106.81880 | 4502 ft | 13 kts | 284° |
| 2026-04-22 16:52 | 47.65006 | 106.81730 | 4502 ft | 15 kts | 284° |
| 2026-04-22 16:52 | 47.64994 | 106.81569 | 4502 ft | 20 kts | 239° |
| 2026-04-22 16:52 | 47.64981 | 106.81358 | 4495 ft | 20 kts | 285° |
| 2026-04-22 16:53 | 47.65012 | 106.81181 | 4496 ft | 19 kts | 284° |
| 2026-04-22 16:53 | 47.65043 | 106.81006 | 4497 ft | 18 kts | 284° |
| 2026-04-22 16:53 | 47.65076 | 106.80821 | 4493 ft | 19 kts | 285° |
| 2026-04-22 16:53 | 47.65111 | 106.80624 | 4493 ft | 22 kts | 284° |
| 2026-04-22 16:54 | 47.65146 | 106.80422 | 4495 ft | 16 kts | 285° |
| 2026-04-22 16:54 | 47.65175 | 106.80258 | 4495 ft | 19 kts | 285° |
| 2026-04-22 16:54 | 47.65209 | 106.80064 | 4494 ft | 18 kts | 285° |
| 2026-04-22 16:54 | 47.65243 | 106.79871 | 4497 ft | 21 kts | 284° |
| 2026-04-22 16:55 | 47.65174 | 106.79719 | 4496 ft | 16 kts | 194° |
| 2026-04-22 16:55 | 47.65080 | 106.79799 | 4495 ft | 19 kts | 105° |
| 2026-04-22 16:55 | 47.65072 | 106.79842 | 4494 ft | 0 kts | 105° |
| 2026-04-22 16:57 | 47.65072 | 106.79843 | 4494 ft | 0 kts | 105° |
| 2026-04-22 16:57 | 47.65065 | 106.79880 | 4495 ft | 20 kts | 105° |
| 2026-04-22 16:57 | 47.64965 | 106.80446 | 4497 ft | 91 kts | 104° |
| 2026-04-22 16:57 | 47.64752 | 106.81663 | 4515 ft | 148 kts | 105° |
| 2026-04-22 16:58 | 47.64569 | 106.82658 | 4811 ft | 153 kts | 106° |
| 2026-04-22 16:58 | 47.64177 | 106.84735 | 5621 ft | 162 kts | 107° |
| 2026-04-22 16:58 | 47.63865 | 106.86480 | 5873 ft | 186 kts | 106° |
| 2026-04-22 16:58 | 47.63526 | 106.88423 | 6249 ft | 204 kts | 106° |
| 2026-04-22 16:59 | 47.63145 | 106.90548 | 6553 ft | 223 kts | 106° |
| 2026-04-22 16:59 | 47.62729 | 106.92885 | 6822 ft | 247 kts | 106° |
| 2026-04-22 16:59 | 47.62259 | 106.95477 | 7171 ft | 273 kts | 107° |
| 2026-04-22 16:59 | 47.61587 | 106.98189 | 7769 ft | 287 kts | 126° |
| 2026-04-22 17:00 | 47.60105 | 107.00078 | 8587 ft | 289 kts | 159° |
| 2026-04-22 17:00 | 47.56326 | 106.99282 | 10134 ft | 286 kts | 225° |
| 2026-04-22 17:00 | 47.55210 | 106.96844 | 10559 ft | 297 kts | 255° |
| 2026-04-22 17:01 | 47.55018 | 106.94817 | 10811 ft | 306 kts | 274° |
| 2026-04-22 17:01 | 47.55276 | 106.91645 | 11493 ft | 313 kts | 278° |
| 2026-04-22 17:01 | 47.55578 | 106.88433 | 12351 ft | 316 kts | 278° |
| 2026-04-22 17:01 | 47.55884 | 106.85209 | 13202 ft | 317 kts | 278° |
| 2026-04-22 17:02 | 47.56184 | 106.81960 | 13685 ft | 318 kts | 276° |
| 2026-04-22 17:02 | 47.56203 | 106.78688 | 13807 ft | 318 kts | 268° |
| 2026-04-22 17:02 | 47.55991 | 106.75438 | 13835 ft | 317 kts | 265° |
| 2026-04-22 17:02 | 47.56103 | 106.72202 | 13836 ft | 315 kts | 284° |
| 2026-04-22 17:03 | 47.56997 | 106.69240 | 13942 ft | 320 kts | 304° |
| 2026-04-22 17:03 | 47.58610 | 106.66935 | 14726 ft | 326 kts | 322° |
| 2026-04-22 17:03 | 47.60685 | 106.65510 | 15562 ft | 333 kts | 337° |
| 2026-04-22 17:03 | 47.62896 | 106.64461 | 16389 ft | 331 kts | 334° |
| 2026-04-22 17:04 | 47.64871 | 106.62833 | 17133 ft | 322 kts | 316° |
| 2026-04-22 17:04 | 47.66334 | 106.60381 | 17948 ft | 316 kts | 298° |
| 2026-04-22 17:04 | 47.67152 | 106.57432 | 18616 ft | 315 kts | 283° |
| 2026-04-22 17:04 | 47.67281 | 106.54176 | 19193 ft | 321 kts | 266° |
| 2026-04-22 17:05 | 47.66900 | 106.50881 | 19736 ft | 326 kts | 263° |
| 2026-04-22 17:05 | 47.66494 | 106.47547 | 20298 ft | 330 kts | 263° |
| 2026-04-22 17:05 | 47.66086 | 106.44175 | 20876 ft | 335 kts | 262° |
| 2026-04-22 17:05 | 47.65674 | 106.40754 | 21416 ft | 339 kts | 262° |
| 2026-04-22 17:06 | 47.65254 | 106.37296 | 21956 ft | 343 kts | 262° |
| 2026-04-22 17:06 | 47.64829 | 106.33793 | 22513 ft | 347 kts | 262° |
| 2026-04-22 17:06 | 47.64398 | 106.30241 | 23070 ft | 352 kts | 262° |
| 2026-04-22 17:06 | 47.63966 | 106.26650 | 23560 ft | 356 kts | 262° |
| 2026-04-22 17:07 | 47.63528 | 106.23026 | 24021 ft | 358 kts | 262° |
| 2026-04-22 17:07 | 47.63088 | 106.19375 | 24502 ft | 361 kts | 262° |
| 2026-04-22 17:07 | 47.62643 | 106.15704 | 24981 ft | 363 kts | 262° |
| 2026-04-22 17:07 | 47.62193 | 106.12016 | 25446 ft | 365 kts | 262° |
| 2026-04-22 17:08 | 47.61735 | 106.08299 | 25908 ft | 367 kts | 262° |
| 2026-04-22 17:08 | 47.61281 | 106.04624 | 26349 ft | 369 kts | 262° |
| 2026-04-22 17:08 | 47.60816 | 106.00871 | 26786 ft | 371 kts | 262° |
| 2026-04-22 17:08 | 47.60347 | 105.97105 | 27219 ft | 373 kts | 263° |
| 2026-04-22 17:09 | 47.59874 | 105.93311 | 27657 ft | 375 kts | 263° |
| 2026-04-22 17:09 | 47.59399 | 105.89505 | 28086 ft | 377 kts | 263° |
| 2026-04-22 17:09 | 47.58920 | 105.85670 | 28500 ft | 379 kts | 263° |
| 2026-04-22 17:09 | 47.58439 | 105.81816 | 28906 ft | 382 kts | 263° |
| 2026-04-22 17:10 | 47.57955 | 105.77937 | 29301 ft | 384 kts | 263° |
| 2026-04-22 17:10 | 47.57467 | 105.74046 | 29713 ft | 386 kts | 263° |
| 2026-04-22 17:10 | 47.56975 | 105.70127 | 30070 ft | 388 kts | 263° |
| 2026-04-22 17:10 | 47.56479 | 105.66188 | 30351 ft | 390 kts | 263° |
| 2026-04-22 17:11 | 47.55976 | 105.62224 | 30653 ft | 393 kts | 263° |
| 2026-04-22 17:11 | 47.55465 | 105.58234 | 30947 ft | 395 kts | 263° |
| 2026-04-22 17:11 | 47.54949 | 105.54228 | 31269 ft | 397 kts | 263° |
| 2026-04-22 17:11 | 47.54432 | 105.50210 | 31663 ft | 397 kts | 263° |
| 2026-04-22 17:12 | 47.53942 | 105.46210 | 32135 ft | 394 kts | 265° |
| 2026-04-22 17:12 | 47.53552 | 105.42217 | 32604 ft | 391 kts | 266° |
| 2026-04-22 17:12 | 47.53230 | 105.38238 | 33056 ft | 388 kts | 267° |
| 2026-04-22 17:12 | 47.52939 | 105.34276 | 33504 ft | 387 kts | 268° |
| 2026-04-22 17:13 | 47.52654 | 105.30370 | 33952 ft | 385 kts | 267° |
| 2026-04-22 17:13 | 47.52353 | 105.26441 | 34329 ft | 384 kts | 267° |
| 2026-04-22 17:13 | 47.52034 | 105.22525 | 34661 ft | 384 kts | 267° |
| 2026-04-22 17:13 | 47.51702 | 105.18601 | 34980 ft | 384 kts | 266° |
| 2026-04-22 17:14 | 47.51362 | 105.14685 | 35283 ft | 384 kts | 266° |
| 2026-04-22 17:14 | 47.51021 | 105.10765 | 35590 ft | 384 kts | 266° |
| 2026-04-22 17:14 | 47.50683 | 105.06852 | 35900 ft | 383 kts | 266° |
| 2026-04-22 17:14 | 47.50345 | 105.02935 | 36202 ft | 383 kts | 266° |
| 2026-04-22 17:15 | 47.50120 | 105.00338 | 36403 ft | 383 kts | 266° |
| 2026-04-22 17:15 | 47.49668 | 104.95153 | 36795 ft | 383 kts | 266° |
| 2026-04-22 17:15 | 47.49323 | 104.91245 | 37089 ft | 383 kts | 266° |
| 2026-04-22 17:15 | 47.48978 | 104.87343 | 37361 ft | 383 kts | 266° |
| 2026-04-22 17:16 | 47.48633 | 104.83438 | 37644 ft | 383 kts | 266° |
| 2026-04-22 17:16 | 47.48285 | 104.79523 | 37824 ft | 384 kts | 266° |
| 2026-04-22 17:16 | 47.47585 | 104.71722 | 37850 ft | 383 kts | 266° |
| 2026-04-22 17:17 | 47.46878 | 104.63911 | 37856 ft | 384 kts | 266° |
| 2026-04-22 17:17 | 47.46170 | 104.56092 | 37855 ft | 384 kts | 266° |
| 2026-04-22 17:18 | 47.45458 | 104.48276 | 37862 ft | 384 kts | 266° |
| 2026-04-22 17:18 | 47.44743 | 104.40465 | 37865 ft | 384 kts | 266° |
| 2026-04-22 17:19 | 47.43281 | 104.24838 | 37868 ft | 384 kts | 266° |
| 2026-04-22 17:20 | 47.41807 | 104.09249 | 37873 ft | 385 kts | 266° |
| 2026-04-22 17:21 | 47.40678 | 103.97512 | 37883 ft | 385 kts | 266° |
| 2026-04-22 17:22 | 47.39540 | 103.85764 | 37884 ft | 385 kts | 265° |
| 2026-04-22 17:23 | 47.38387 | 103.74028 | 37872 ft | 385 kts | 265° |
| 2026-04-22 17:23 | 47.37226 | 103.62311 | 37879 ft | 384 kts | 265° |
| 2026-04-22 17:24 | 47.36456 | 103.54555 | 37876 ft | 384 kts | 265° |
| 2026-04-22 17:24 | 47.35666 | 103.46764 | 37877 ft | 384 kts | 265° |
| 2026-04-22 17:25 | 47.34871 | 103.38978 | 37878 ft | 384 kts | 265° |
| 2026-04-22 17:25 | 47.34076 | 103.31190 | 37883 ft | 384 kts | 265° |
| 2026-04-22 17:26 | 47.33276 | 103.23407 | 37886 ft | 383 kts | 265° |
| 2026-04-22 17:26 | 47.32473 | 103.15643 | 37883 ft | 383 kts | 265° |
| 2026-04-22 17:27 | 47.31663 | 103.07877 | 37882 ft | 383 kts | 265° |
| 2026-04-22 17:27 | 47.30849 | 103.00122 | 37877 ft | 383 kts | 265° |
| 2026-04-22 17:28 | 47.30024 | 102.92354 | 37861 ft | 383 kts | 264° |
| 2026-04-22 17:28 | 47.29196 | 102.84605 | 37867 ft | 383 kts | 265° |
| 2026-04-22 17:29 | 47.28368 | 102.76846 | 37857 ft | 383 kts | 264° |
| 2026-04-22 17:29 | 47.27534 | 102.69087 | 37867 ft | 384 kts | 264° |
| 2026-04-22 17:30 | 47.26694 | 102.61328 | 37850 ft | 384 kts | 264° |
| 2026-04-22 17:30 | 47.25845 | 102.53578 | 37848 ft | 383 kts | 264° |
| 2026-04-22 17:31 | 47.24995 | 102.45887 | 37834 ft | 383 kts | 264° |
| 2026-04-22 17:31 | 47.24139 | 102.38137 | 37837 ft | 384 kts | 264° |
| 2026-04-22 17:32 | 47.23273 | 102.30388 | 37852 ft | 384 kts | 264° |
| 2026-04-22 17:32 | 47.22406 | 102.22632 | 37843 ft | 384 kts | 264° |
| 2026-04-22 17:33 | 47.21538 | 102.14884 | 37840 ft | 384 kts | 264° |
| 2026-04-22 17:33 | 47.20656 | 102.07141 | 37841 ft | 384 kts | 264° |
| 2026-04-22 17:34 | 47.19762 | 101.99388 | 37843 ft | 384 kts | 264° |
| 2026-04-22 17:34 | 47.18870 | 101.91651 | 37837 ft | 384 kts | 264° |
| 2026-04-22 17:35 | 47.17975 | 101.83908 | 37819 ft | 384 kts | 263° |
| 2026-04-22 17:35 | 47.17085 | 101.76223 | 37821 ft | 384 kts | 263° |
| 2026-04-22 17:36 | 47.16171 | 101.68435 | 37826 ft | 384 kts | 263° |
| 2026-04-22 17:36 | 47.15270 | 101.60752 | 37822 ft | 384 kts | 263° |
| 2026-04-22 17:37 | 47.14350 | 101.53016 | 37826 ft | 384 kts | 263° |
| 2026-04-22 17:37 | 47.13423 | 101.45284 | 37830 ft | 384 kts | 263° |
| 2026-04-22 17:38 | 47.12491 | 101.37548 | 37836 ft | 385 kts | 263° |
| 2026-04-22 17:38 | 47.11556 | 101.29805 | 37841 ft | 385 kts | 263° |
| 2026-04-22 17:39 | 47.10618 | 101.22051 | 37851 ft | 386 kts | 263° |
| 2026-04-22 17:40 | 47.09194 | 101.10425 | 37855 ft | 385 kts | 263° |
| 2026-04-22 17:40 | 47.08235 | 101.02689 | 37855 ft | 385 kts | 263° |
| 2026-04-22 17:41 | 47.07280 | 100.94987 | 37859 ft | 385 kts | 263° |
| 2026-04-22 17:41 | 47.06322 | 100.87262 | 37829 ft | 385 kts | 263° |
| 2026-04-22 17:42 | 47.05352 | 100.79515 | 37838 ft | 386 kts | 263° |
| 2026-04-22 17:42 | 47.04536 | 100.73067 | 37835 ft | 387 kts | 263° |
| 2026-04-22 17:43 | 47.03388 | 100.64014 | 37839 ft | 386 kts | 262° |
| 2026-04-22 17:43 | 47.02404 | 100.56273 | 37846 ft | 387 kts | 262° |
| 2026-04-22 17:44 | 47.01416 | 100.48567 | 37844 ft | 387 kts | 262° |
| 2026-04-22 17:44 | 47.00410 | 100.40819 | 37844 ft | 387 kts | 262° |
| 2026-04-22 17:45 | 46.99399 | 100.33077 | 37842 ft | 387 kts | 262° |
| 2026-04-22 17:45 | 46.98389 | 100.25336 | 37848 ft | 387 kts | 262° |
| 2026-04-22 17:46 | 46.97381 | 100.17597 | 37837 ft | 387 kts | 262° |
| 2026-04-22 17:46 | 46.96363 | 100.09863 | 37833 ft | 387 kts | 262° |
| 2026-04-22 17:47 | 46.95515 | 100.03434 | 37844 ft | 387 kts | 262° |
| 2026-04-22 17:47 | 46.94488 | 99.95699 | 37806 ft | 387 kts | 262° |
| 2026-04-22 17:48 | 46.93453 | 99.87958 | 37826 ft | 387 kts | 262° |
| 2026-04-22 17:48 | 46.92403 | 99.80224 | 37827 ft | 387 kts | 261° |
| 2026-04-22 17:49 | 46.91350 | 99.72495 | 37827 ft | 387 kts | 261° |
| 2026-04-22 17:49 | 46.90311 | 99.64811 | 37827 ft | 387 kts | 261° |
| 2026-04-22 17:50 | 46.89251 | 99.57088 | 37828 ft | 387 kts | 261° |
| 2026-04-22 17:50 | 46.88184 | 99.49366 | 37826 ft | 387 kts | 261° |
| 2026-04-22 17:51 | 46.87115 | 99.41645 | 37816 ft | 387 kts | 261° |
| 2026-04-22 17:51 | 46.86044 | 99.33928 | 37815 ft | 388 kts | 261° |
| 2026-04-22 17:52 | 46.84968 | 99.26204 | 37819 ft | 388 kts | 261° |
| 2026-04-22 17:52 | 46.83878 | 99.18475 | 37817 ft | 388 kts | 261° |
| 2026-04-22 17:53 | 46.82786 | 99.10747 | 37827 ft | 388 kts | 261° |
| 2026-04-22 17:53 | 46.81692 | 99.03022 | 37829 ft | 389 kts | 261° |
| 2026-04-22 17:54 | 46.80593 | 98.95343 | 37821 ft | 389 kts | 260° |
| 2026-04-22 17:54 | 46.79484 | 98.87612 | 37822 ft | 389 kts | 260° |
| 2026-04-22 17:55 | 46.78364 | 98.79873 | 37819 ft | 390 kts | 260° |
| 2026-04-22 17:55 | 46.77242 | 98.72138 | 37821 ft | 390 kts | 260° |
| 2026-04-22 17:56 | 46.76116 | 98.64396 | 37822 ft | 390 kts | 260° |
| 2026-04-22 17:56 | 46.74986 | 98.56639 | 37825 ft | 390 kts | 260° |
| 2026-04-22 17:57 | 46.73852 | 98.48893 | 37811 ft | 391 kts | 260° |
| 2026-04-22 17:57 | 46.72703 | 98.41132 | 37817 ft | 392 kts | 259° |
| 2026-04-22 17:58 | 46.71541 | 98.33364 | 37818 ft | 392 kts | 259° |
| 2026-04-22 17:58 | 46.70383 | 98.25636 | 37823 ft | 393 kts | 259° |
| 2026-04-22 17:59 | 46.69217 | 98.17861 | 37827 ft | 393 kts | 259° |
| 2026-04-22 17:59 | 46.68047 | 98.10075 | 37801 ft | 393 kts | 259° |
| 2026-04-22 18:00 | 46.67071 | 98.03602 | 37804 ft | 394 kts | 259° |
| 2026-04-22 18:00 | 46.65680 | 97.94481 | 37808 ft | 395 kts | 259° |
| 2026-04-22 18:01 | 46.64483 | 97.86671 | 37820 ft | 395 kts | 259° |
| 2026-04-22 18:01 | 46.63283 | 97.78867 | 37822 ft | 396 kts | 259° |
| 2026-04-22 18:02 | 46.62077 | 97.71047 | 37816 ft | 396 kts | 259° |
| 2026-04-22 18:02 | 46.60867 | 97.63230 | 37817 ft | 396 kts | 259° |
| 2026-04-22 18:03 | 46.59653 | 97.55463 | 37826 ft | 396 kts | 259° |
| 2026-04-22 18:03 | 46.58428 | 97.47657 | 37826 ft | 396 kts | 259° |
| 2026-04-22 18:04 | 46.57191 | 97.39851 | 37822 ft | 396 kts | 259° |
| 2026-04-22 18:04 | 46.55956 | 97.32052 | 37818 ft | 396 kts | 259° |
| 2026-04-22 18:05 | 46.54723 | 97.24255 | 37800 ft | 396 kts | 259° |
| 2026-04-22 18:05 | 46.53479 | 97.16446 | 37798 ft | 397 kts | 259° |
| 2026-04-22 18:06 | 46.52224 | 97.08625 | 37802 ft | 398 kts | 258° |
| 2026-04-22 18:06 | 46.50964 | 97.00844 | 37807 ft | 399 kts | 258° |
| 2026-04-22 18:07 | 46.49693 | 96.93007 | 37812 ft | 399 kts | 258° |
| 2026-04-22 18:07 | 46.48418 | 96.85156 | 37811 ft | 399 kts | 258° |
| 2026-04-22 18:08 | 46.47137 | 96.77310 | 37812 ft | 400 kts | 258° |
| 2026-04-22 18:08 | 46.45847 | 96.69444 | 37816 ft | 401 kts | 258° |
| 2026-04-22 18:09 | 46.44549 | 96.61587 | 37819 ft | 401 kts | 258° |
| 2026-04-22 18:09 | 46.43242 | 96.53723 | 37822 ft | 401 kts | 258° |
| 2026-04-22 18:10 | 46.41932 | 96.45857 | 37823 ft | 401 kts | 258° |
| 2026-04-22 18:10 | 46.40616 | 96.37995 | 37821 ft | 402 kts | 258° |
| 2026-04-22 18:11 | 46.39289 | 96.30120 | 37814 ft | 402 kts | 258° |
| 2026-04-22 18:11 | 46.37982 | 96.22241 | 37817 ft | 402 kts | 262° |
| 2026-04-22 18:12 | 46.37503 | 96.14213 | 37825 ft | 400 kts | 268° |
| 2026-04-22 18:12 | 46.37186 | 96.07514 | 37825 ft | 401 kts | 267° |
| 2026-04-22 18:13 | 46.36720 | 95.98109 | 37805 ft | 401 kts | 267° |
| 2026-04-22 18:13 | 46.36315 | 95.90095 | 37802 ft | 402 kts | 267° |
| 2026-04-22 18:14 | 46.35908 | 95.82018 | 37807 ft | 402 kts | 267° |
| 2026-04-22 18:14 | 46.35497 | 95.73938 | 37803 ft | 403 kts | 267° |
| 2026-04-22 18:15 | 46.35075 | 95.65853 | 37806 ft | 403 kts | 267° |
| 2026-04-22 18:15 | 46.34647 | 95.57764 | 37782 ft | 403 kts | 267° |
| 2026-04-22 18:16 | 46.34225 | 95.49651 | 37786 ft | 404 kts | 267° |
| 2026-04-22 18:16 | 46.33790 | 95.41527 | 37787 ft | 405 kts | 267° |
| 2026-04-22 18:17 | 46.33346 | 95.33393 | 37798 ft | 406 kts | 267° |
| 2026-04-22 18:17 | 46.32886 | 95.25250 | 37802 ft | 406 kts | 267° |
| 2026-04-22 18:18 | 46.32429 | 95.17152 | 37802 ft | 406 kts | 268° |
| 2026-04-22 18:18 | 46.31971 | 95.08993 | 37808 ft | 407 kts | 268° |
| 2026-04-22 18:19 | 46.31504 | 95.00830 | 37808 ft | 407 kts | 267° |
| 2026-04-22 18:19 | 46.31032 | 94.92667 | 37822 ft | 407 kts | 267° |
| 2026-04-22 18:20 | 46.30542 | 94.84496 | 37819 ft | 407 kts | 267° |
| 2026-04-22 18:20 | 46.30049 | 94.76343 | 37829 ft | 407 kts | 268° |
| 2026-04-22 18:21 | 46.29555 | 94.68195 | 37830 ft | 407 kts | 268° |
| 2026-04-22 18:21 | 46.29063 | 94.60052 | 37838 ft | 406 kts | 268° |
| 2026-04-22 18:22 | 46.28564 | 94.51921 | 37840 ft | 406 kts | 268° |
| 2026-04-22 18:22 | 46.28061 | 94.43851 | 37834 ft | 406 kts | 267° |
| 2026-04-22 18:23 | 46.27546 | 94.35727 | 37828 ft | 406 kts | 268° |
| 2026-04-22 18:23 | 46.27022 | 94.27606 | 37851 ft | 406 kts | 268° |
| 2026-04-22 18:24 | 46.26230 | 94.15435 | 37875 ft | 405 kts | 268° |
| 2026-04-22 18:25 | 46.25429 | 94.03269 | 37872 ft | 405 kts | 268° |
| 2026-04-22 18:25 | 46.24894 | 93.95158 | 37883 ft | 405 kts | 268° |
| 2026-04-22 18:26 | 46.24067 | 93.83011 | 37888 ft | 405 kts | 268° |
| 2026-04-22 18:26 | 46.23509 | 93.74921 | 37892 ft | 405 kts | 268° |
| 2026-04-22 18:27 | 46.22945 | 93.66832 | 37895 ft | 405 kts | 268° |
| 2026-04-22 18:27 | 46.22381 | 93.58742 | 37896 ft | 405 kts | 268° |
| 2026-04-22 18:28 | 46.21809 | 93.50653 | 37906 ft | 405 kts | 267° |
| 2026-04-22 18:28 | 46.21232 | 93.42563 | 37906 ft | 405 kts | 267° |
| 2026-04-22 18:29 | 46.20641 | 93.34474 | 37901 ft | 405 kts | 267° |
| 2026-04-22 18:29 | 46.20058 | 93.26435 | 37906 ft | 405 kts | 267° |
| 2026-04-22 18:30 | 46.19163 | 93.14310 | 37896 ft | 405 kts | 268° |
| 2026-04-22 18:31 | 46.18554 | 93.06226 | 37899 ft | 405 kts | 268° |
| 2026-04-22 18:31 | 46.17938 | 92.98152 | 37900 ft | 405 kts | 268° |
| 2026-04-22 18:32 | 46.17423 | 92.91431 | 37905 ft | 405 kts | 268° |
| 2026-04-22 18:32 | 46.16806 | 92.83360 | 37907 ft | 405 kts | 268° |
| 2026-04-22 18:33 | 46.16185 | 92.75288 | 37900 ft | 404 kts | 268° |
| 2026-04-22 18:33 | 46.15556 | 92.67218 | 37895 ft | 405 kts | 268° |
| 2026-04-22 18:34 | 46.14920 | 92.59149 | 37901 ft | 405 kts | 268° |
| 2026-04-22 18:34 | 46.14271 | 92.51076 | 37900 ft | 405 kts | 268° |
| 2026-04-22 18:35 | 46.13626 | 92.43008 | 37886 ft | 405 kts | 268° |
| 2026-04-22 18:35 | 46.12969 | 92.34945 | 37880 ft | 405 kts | 268° |
| 2026-04-22 18:36 | 46.12316 | 92.26931 | 37890 ft | 405 kts | 268° |
| 2026-04-22 18:36 | 46.11647 | 92.18829 | 37891 ft | 405 kts | 268° |
| 2026-04-22 18:37 | 46.10975 | 92.10828 | 37896 ft | 404 kts | 268° |
| 2026-04-22 18:37 | 46.10294 | 92.02783 | 37897 ft | 404 kts | 268° |
| 2026-04-22 18:38 | 46.09738 | 91.94739 | 37877 ft | 403 kts | 270° |
| 2026-04-22 18:38 | 46.09292 | 91.86702 | 37894 ft | 402 kts | 270° |
| 2026-04-22 18:39 | 46.08581 | 91.74654 | 37903 ft | 402 kts | 270° |
| 2026-04-22 18:39 | 46.08071 | 91.66636 | 37904 ft | 402 kts | 270° |
| 2026-04-22 18:40 | 46.07555 | 91.58617 | 37893 ft | 402 kts | 270° |
| 2026-04-22 18:40 | 46.07030 | 91.50612 | 37902 ft | 401 kts | 270° |
| 2026-04-22 18:41 | 46.06509 | 91.42623 | 37911 ft | 400 kts | 270° |
| 2026-04-22 18:41 | 46.05979 | 91.34639 | 37912 ft | 400 kts | 270° |
| 2026-04-22 18:42 | 46.05441 | 91.26649 | 37924 ft | 400 kts | 270° |
| 2026-04-22 18:42 | 46.04908 | 91.18732 | 37894 ft | 400 kts | 270° |
| 2026-04-22 18:43 | 46.04371 | 91.10760 | 37919 ft | 399 kts | 270° |
| 2026-04-22 18:43 | 46.03829 | 91.02814 | 37928 ft | 399 kts | 270° |
| 2026-04-22 18:44 | 46.03270 | 90.94871 | 37940 ft | 398 kts | 270° |
| 2026-04-22 18:44 | 46.02712 | 90.86943 | 37942 ft | 398 kts | 270° |
| 2026-04-22 18:45 | 46.02144 | 90.79015 | 37923 ft | 398 kts | 270° |
| 2026-04-22 18:45 | 46.01573 | 90.71103 | 37939 ft | 398 kts | 270° |
| 2026-04-22 18:46 | 46.01001 | 90.63197 | 37944 ft | 397 kts | 269° |
| 2026-04-22 18:46 | 46.00424 | 90.55297 | 37943 ft | 397 kts | 269° |
| 2026-04-22 18:47 | 45.99843 | 90.47402 | 37946 ft | 397 kts | 269° |
| 2026-04-22 18:47 | 45.99252 | 90.39527 | 37935 ft | 396 kts | 269° |
| 2026-04-22 18:48 | 45.98660 | 90.31702 | 37936 ft | 395 kts | 269° |
| 2026-04-22 18:48 | 45.98058 | 90.23827 | 37940 ft | 395 kts | 269° |
| 2026-04-22 18:49 | 45.97463 | 90.15980 | 37945 ft | 395 kts | 269° |
| 2026-04-22 18:49 | 45.96858 | 90.08130 | 37919 ft | 395 kts | 269° |
| 2026-04-22 18:50 | 45.96240 | 90.00282 | 37927 ft | 395 kts | 269° |
| 2026-04-22 18:50 | 45.95620 | 89.92491 | 37921 ft | 394 kts | 269° |
| 2026-04-22 18:51 | 45.94996 | 89.84657 | 37934 ft | 394 kts | 269° |
| 2026-04-22 18:51 | 45.94370 | 89.76847 | 37936 ft | 393 kts | 269° |
| 2026-04-22 18:52 | 45.93739 | 89.69031 | 37937 ft | 393 kts | 269° |
| 2026-04-22 18:52 | 45.93104 | 89.61228 | 37934 ft | 393 kts | 269° |
| 2026-04-22 18:53 | 45.92461 | 89.53426 | 37935 ft | 393 kts | 269° |
| 2026-04-22 18:53 | 45.91810 | 89.45624 | 37937 ft | 394 kts | 269° |
| 2026-04-22 18:54 | 45.91158 | 89.37813 | 37942 ft | 394 kts | 269° |
| 2026-04-22 18:54 | 45.90498 | 89.30003 | 37942 ft | 394 kts | 269° |
| 2026-04-22 18:55 | 45.89828 | 89.22199 | 37939 ft | 393 kts | 269° |
| 2026-04-22 18:55 | 45.89159 | 89.14406 | 37917 ft | 393 kts | 269° |
| 2026-04-22 18:56 | 45.88493 | 89.06625 | 37940 ft | 393 kts | 269° |
| 2026-04-22 18:56 | 45.87815 | 88.98849 | 37945 ft | 393 kts | 269° |
| 2026-04-22 18:57 | 45.87376 | 88.91070 | 37938 ft | 389 kts | 273° |
| 2026-04-22 18:57 | 45.87217 | 88.83377 | 37934 ft | 388 kts | 274° |
| 2026-04-22 18:58 | 45.87045 | 88.75636 | 37931 ft | 388 kts | 273° |
| 2026-04-22 18:58 | 45.86802 | 88.67905 | 37936 ft | 388 kts | 272° |
| 2026-04-22 18:59 | 45.86525 | 88.60184 | 37938 ft | 387 kts | 272° |
| 2026-04-22 18:59 | 45.86248 | 88.52469 | 37937 ft | 387 kts | 272° |
| 2026-04-22 19:00 | 45.85974 | 88.44760 | 37937 ft | 387 kts | 272° |
| 2026-04-22 19:00 | 45.85696 | 88.37048 | 37932 ft | 387 kts | 272° |
| 2026-04-22 19:01 | 45.85412 | 88.29354 | 37941 ft | 386 kts | 272° |
| 2026-04-22 19:01 | 45.85120 | 88.21667 | 37940 ft | 386 kts | 272° |
| 2026-04-22 19:02 | 45.84825 | 88.13984 | 37940 ft | 385 kts | 272° |
| 2026-04-22 19:02 | 45.84536 | 88.06306 | 37934 ft | 385 kts | 272° |
| 2026-04-22 19:03 | 45.84228 | 87.98628 | 37915 ft | 385 kts | 272° |
| 2026-04-22 19:03 | 45.83915 | 87.90953 | 37912 ft | 385 kts | 272° |
| 2026-04-22 19:04 | 45.83598 | 87.83288 | 37916 ft | 385 kts | 272° |
| 2026-04-22 19:04 | 45.83283 | 87.75667 | 37915 ft | 385 kts | 272° |
| 2026-04-22 19:05 | 45.82958 | 87.68000 | 37918 ft | 385 kts | 272° |
| 2026-04-22 19:05 | 45.82635 | 87.60335 | 37889 ft | 385 kts | 272° |
| 2026-04-22 19:06 | 45.82300 | 87.52669 | 37904 ft | 385 kts | 272° |
| 2026-04-22 19:07 | 45.81784 | 87.41180 | 37907 ft | 385 kts | 272° |
| 2026-04-22 19:07 | 45.81440 | 87.33525 | 37909 ft | 385 kts | 272° |
| 2026-04-22 19:08 | 45.81089 | 87.25865 | 37905 ft | 385 kts | 272° |
| 2026-04-22 19:08 | 45.80728 | 87.18217 | 37902 ft | 384 kts | 272° |
| 2026-04-22 19:09 | 45.80363 | 87.10588 | 37907 ft | 384 kts | 272° |
| 2026-04-22 19:09 | 45.80057 | 87.04251 | 37909 ft | 383 kts | 272° |
| 2026-04-22 19:10 | 45.79628 | 86.95351 | 37905 ft | 383 kts | 272° |
| 2026-04-22 19:10 | 45.79257 | 86.87796 | 37904 ft | 382 kts | 272° |
| 2026-04-22 19:11 | 45.78880 | 86.80190 | 37889 ft | 382 kts | 272° |
| 2026-04-22 19:11 | 45.78491 | 86.72614 | 37908 ft | 381 kts | 272° |
| 2026-04-22 19:12 | 45.78097 | 86.65042 | 37894 ft | 380 kts | 272° |
| 2026-04-22 19:12 | 45.77704 | 86.57490 | 37888 ft | 380 kts | 272° |
| 2026-04-22 19:13 | 45.77314 | 86.49943 | 37887 ft | 380 kts | 272° |
| 2026-04-22 19:13 | 45.76907 | 86.42391 | 37880 ft | 379 kts | 271° |
| 2026-04-22 19:14 | 45.76501 | 86.34917 | 37880 ft | 379 kts | 271° |
| 2026-04-22 19:14 | 45.76087 | 86.27394 | 37883 ft | 378 kts | 271° |
| 2026-04-22 19:15 | 45.75747 | 86.21158 | 37877 ft | 378 kts | 271° |
| 2026-04-22 19:15 | 45.75257 | 86.12389 | 37878 ft | 378 kts | 271° |
| 2026-04-22 19:16 | 45.74833 | 86.04884 | 37860 ft | 377 kts | 271° |
| 2026-04-22 19:16 | 45.74401 | 85.97452 | 37874 ft | 376 kts | 271° |
| 2026-04-22 19:17 | 45.73969 | 85.89988 | 37883 ft | 376 kts | 271° |
| 2026-04-22 19:17 | 45.73528 | 85.82534 | 37882 ft | 375 kts | 271° |
| 2026-04-22 19:18 | 45.73089 | 85.75088 | 37884 ft | 375 kts | 271° |
| 2026-04-22 19:18 | 45.72725 | 85.68911 | 37882 ft | 375 kts | 271° |
| 2026-04-22 19:19 | 45.72278 | 85.61480 | 37880 ft | 374 kts | 271° |
| 2026-04-22 19:19 | 45.71824 | 85.54059 | 37881 ft | 374 kts | 271° |
| 2026-04-22 19:20 | 45.71364 | 85.46637 | 37881 ft | 374 kts | 271° |
| 2026-04-22 19:20 | 45.70901 | 85.39213 | 37879 ft | 374 kts | 271° |
| 2026-04-22 19:21 | 45.70432 | 85.31842 | 37879 ft | 374 kts | 270° |
| 2026-04-22 19:21 | 45.69946 | 85.24413 | 37866 ft | 374 kts | 270° |
| 2026-04-22 19:22 | 45.69074 | 85.17035 | 37873 ft | 378 kts | 264° |
| 2026-04-22 19:22 | 45.67988 | 85.09678 | 37881 ft | 378 kts | 264° |
| 2026-04-22 19:23 | 45.66888 | 85.02334 | 37883 ft | 378 kts | 264° |
| 2026-04-22 19:23 | 45.65795 | 84.95039 | 37864 ft | 377 kts | 264° |
| 2026-04-22 19:24 | 45.64701 | 84.87705 | 37861 ft | 377 kts | 264° |
| 2026-04-22 19:24 | 45.63597 | 84.80385 | 37884 ft | 376 kts | 264° |
| 2026-04-22 19:25 | 45.62490 | 84.73074 | 37890 ft | 376 kts | 264° |
| 2026-04-22 19:25 | 45.61393 | 84.65773 | 37905 ft | 376 kts | 264° |
| 2026-04-22 19:26 | 45.60285 | 84.58481 | 37906 ft | 376 kts | 264° |
| 2026-04-22 19:26 | 45.59169 | 84.51196 | 37894 ft | 376 kts | 264° |
| 2026-04-22 19:27 | 45.58044 | 84.43913 | 37897 ft | 376 kts | 264° |
| 2026-04-22 19:27 | 45.56909 | 84.36642 | 37911 ft | 375 kts | 263° |
| 2026-04-22 19:28 | 45.55771 | 84.29364 | 37917 ft | 375 kts | 263° |
| 2026-04-22 19:28 | 45.54640 | 84.22095 | 37914 ft | 375 kts | 264° |
| 2026-04-22 19:29 | 45.53510 | 84.14819 | 37891 ft | 376 kts | 263° |
| 2026-04-22 19:29 | 45.52380 | 84.07598 | 37903 ft | 376 kts | 263° |
| 2026-04-22 19:30 | 45.51414 | 84.01505 | 37904 ft | 376 kts | 263° |
| 2026-04-22 19:30 | 45.50070 | 83.93052 | 37909 ft | 376 kts | 263° |
| 2026-04-22 19:31 | 45.48912 | 83.85776 | 37916 ft | 376 kts | 263° |
| 2026-04-22 19:31 | 45.47752 | 83.78500 | 37915 ft | 376 kts | 263° |
| 2026-04-22 19:32 | 45.46581 | 83.71228 | 37898 ft | 377 kts | 263° |
| 2026-04-22 19:32 | 45.45400 | 83.63960 | 37916 ft | 377 kts | 263° |
| 2026-04-22 19:33 | 45.44228 | 83.56733 | 37911 ft | 377 kts | 263° |
| 2026-04-22 19:33 | 45.43047 | 83.49471 | 37908 ft | 377 kts | 263° |
| 2026-04-22 19:34 | 45.41859 | 83.42208 | 37911 ft | 377 kts | 263° |
| 2026-04-22 19:34 | 45.40667 | 83.34945 | 37893 ft | 376 kts | 263° |
| 2026-04-22 19:35 | 45.39470 | 83.27686 | 37894 ft | 376 kts | 263° |
| 2026-04-22 19:35 | 45.38268 | 83.20437 | 37902 ft | 376 kts | 263° |
| 2026-04-22 19:36 | 45.37057 | 83.13193 | 37888 ft | 376 kts | 263° |
| 2026-04-22 19:36 | 45.35852 | 83.05954 | 37895 ft | 376 kts | 263° |
| 2026-04-22 19:37 | 45.34642 | 82.98737 | 37870 ft | 375 kts | 263° |
| 2026-04-22 19:37 | 45.33434 | 82.91585 | 37892 ft | 374 kts | 263° |
| 2026-04-22 19:38 | 45.32211 | 82.84397 | 37883 ft | 374 kts | 263° |
| 2026-04-22 19:38 | 45.30995 | 82.77229 | 37865 ft | 373 kts | 263° |
| 2026-04-22 19:39 | 45.29775 | 82.70063 | 37878 ft | 373 kts | 263° |
| 2026-04-22 19:39 | 45.28514 | 82.62911 | 37859 ft | 375 kts | 259° |
| 2026-04-22 19:40 | 45.26228 | 82.56120 | 37871 ft | 384 kts | 250° |
| 2026-04-22 19:40 | 45.23697 | 82.49442 | 37877 ft | 384 kts | 250° |
| 2026-04-22 19:41 | 45.21183 | 82.42822 | 37883 ft | 383 kts | 250° |
| 2026-04-22 19:41 | 45.18651 | 82.36161 | 37878 ft | 383 kts | 250° |
| 2026-04-22 19:42 | 45.16117 | 82.29518 | 37877 ft | 383 kts | 250° |
| 2026-04-22 19:42 | 45.13581 | 82.22874 | 37879 ft | 383 kts | 249° |
| 2026-04-22 19:43 | 45.09770 | 82.12941 | 37861 ft | 382 kts | 249° |
| 2026-04-22 19:43 | 45.07227 | 82.06329 | 37866 ft | 383 kts | 249° |
| 2026-04-22 19:44 | 45.04679 | 81.99725 | 37882 ft | 383 kts | 249° |
| 2026-04-22 19:44 | 45.02121 | 81.93121 | 37882 ft | 383 kts | 249° |
| 2026-04-22 19:45 | 44.99583 | 81.86567 | 37892 ft | 383 kts | 249° |
| 2026-04-22 19:45 | 44.97027 | 81.79967 | 37891 ft | 383 kts | 249° |
| 2026-04-22 19:46 | 44.94464 | 81.73380 | 37905 ft | 383 kts | 249° |
| 2026-04-22 19:46 | 44.91896 | 81.66798 | 37902 ft | 383 kts | 249° |
| 2026-04-22 19:47 | 44.89317 | 81.60219 | 37903 ft | 383 kts | 249° |
| 2026-04-22 19:47 | 44.86738 | 81.53647 | 37908 ft | 383 kts | 248° |
| 2026-04-22 19:48 | 44.84163 | 81.47088 | 37917 ft | 382 kts | 248° |
| 2026-04-22 19:48 | 44.81604 | 81.40588 | 37925 ft | 382 kts | 248° |
| 2026-04-22 19:49 | 44.79023 | 81.34060 | 37923 ft | 381 kts | 248° |
| 2026-04-22 19:49 | 44.76442 | 81.27537 | 37930 ft | 381 kts | 248° |
| 2026-04-22 19:50 | 44.73865 | 81.21030 | 37932 ft | 380 kts | 248° |
| 2026-04-22 19:50 | 44.71283 | 81.14547 | 37944 ft | 380 kts | 248° |
| 2026-04-22 19:51 | 44.68704 | 81.08075 | 37944 ft | 379 kts | 248° |
| 2026-04-22 19:51 | 44.66126 | 81.01624 | 37946 ft | 379 kts | 248° |
| 2026-04-22 19:52 | 44.63550 | 80.95176 | 37918 ft | 378 kts | 248° |
| 2026-04-22 19:52 | 44.60971 | 80.88746 | 37914 ft | 377 kts | 248° |
| 2026-04-22 19:53 | 44.58391 | 80.82344 | 37937 ft | 376 kts | 248° |
| 2026-04-22 19:53 | 44.55813 | 80.75959 | 37944 ft | 376 kts | 248° |
| 2026-04-22 19:54 | 44.53257 | 80.69636 | 37924 ft | 374 kts | 248° |
| 2026-04-22 19:54 | 44.50689 | 80.63299 | 37917 ft | 374 kts | 247° |
| 2026-04-22 19:55 | 44.48117 | 80.56963 | 37911 ft | 374 kts | 247° |
| 2026-04-22 19:55 | 44.45551 | 80.50647 | 37898 ft | 373 kts | 247° |
| 2026-04-22 19:56 | 44.42982 | 80.44334 | 37887 ft | 374 kts | 247° |
| 2026-04-22 19:56 | 44.40409 | 80.38029 | 37897 ft | 374 kts | 247° |
| 2026-04-22 19:57 | 44.37840 | 80.31757 | 37887 ft | 373 kts | 247° |
| 2026-04-22 19:57 | 44.35258 | 80.25466 | 37865 ft | 373 kts | 247° |
| 2026-04-22 19:58 | 44.32673 | 80.19181 | 37871 ft | 373 kts | 247° |
| 2026-04-22 19:58 | 44.30081 | 80.12899 | 37867 ft | 372 kts | 247° |
| 2026-04-22 20:00 | 44.22646 | 79.90455 | 37855 ft | 355 kts | 269° |
| 2026-04-22 20:01 | 44.22334 | 79.83581 | 37853 ft | 356 kts | 269° |
| 2026-04-22 20:01 | 44.21989 | 79.76699 | 37848 ft | 356 kts | 268° |
| 2026-04-22 20:02 | 44.21638 | 79.69826 | 37851 ft | 355 kts | 269° |
| 2026-04-22 20:02 | 44.21300 | 79.62957 | 37853 ft | 355 kts | 268° |
| 2026-04-22 20:03 | 44.20955 | 79.56094 | 37853 ft | 354 kts | 268° |
| 2026-04-22 20:03 | 44.20605 | 79.49294 | 37850 ft | 354 kts | 268° |
| 2026-04-22 20:04 | 44.20252 | 79.42443 | 37851 ft | 354 kts | 268° |
| 2026-04-22 20:04 | 44.19900 | 79.35610 | 37855 ft | 353 kts | 268° |
| 2026-04-22 20:05 | 44.19531 | 79.28705 | 37404 ft | 367 kts | 268° |
| 2026-04-22 20:05 | 44.19343 | 79.25138 | 36783 ft | 370 kts | 267° |
| 2026-04-22 20:05 | 44.19217 | 79.22773 | 36387 ft | 369 kts | 267° |
| 2026-04-22 20:05 | 44.18962 | 79.18049 | 35613 ft | 368 kts | 267° |
| 2026-04-22 20:06 | 44.18831 | 79.15646 | 35226 ft | 368 kts | 266° |
| 2026-04-22 20:06 | 44.18571 | 79.10936 | 34477 ft | 368 kts | 266° |
| 2026-04-22 20:06 | 44.18373 | 79.07380 | 33941 ft | 368 kts | 266° |
| 2026-04-22 20:06 | 44.18239 | 79.04975 | 33526 ft | 368 kts | 266° |
| 2026-04-22 20:07 | 44.18041 | 79.01428 | 32919 ft | 368 kts | 266° |
| 2026-04-22 20:07 | 44.17844 | 78.97872 | 32314 ft | 367 kts | 266° |
| 2026-04-22 20:07 | 44.17648 | 78.94320 | 31733 ft | 367 kts | 266° |
| 2026-04-22 20:07 | 44.17453 | 78.90819 | 31167 ft | 367 kts | 266° |
| 2026-04-22 20:08 | 44.17253 | 78.87282 | 30605 ft | 365 kts | 266° |
| 2026-04-22 20:08 | 44.17054 | 78.83760 | 30056 ft | 363 kts | 266° |
| 2026-04-22 20:08 | 44.16855 | 78.80264 | 29435 ft | 360 kts | 266° |
| 2026-04-22 20:08 | 44.16655 | 78.76800 | 28810 ft | 358 kts | 265° |
| 2026-04-22 20:09 | 44.16455 | 78.73355 | 28195 ft | 356 kts | 265° |
| 2026-04-22 20:09 | 44.16254 | 78.69919 | 27595 ft | 354 kts | 265° |
| 2026-04-22 20:09 | 44.16052 | 78.66507 | 27009 ft | 353 kts | 265° |
| 2026-04-22 20:09 | 44.15851 | 78.63105 | 26429 ft | 351 kts | 265° |
| 2026-04-22 20:10 | 44.15652 | 78.59735 | 25870 ft | 348 kts | 265° |
| 2026-04-22 20:10 | 44.15453 | 78.56387 | 25318 ft | 345 kts | 265° |
| 2026-04-22 20:10 | 44.15255 | 78.53078 | 24776 ft | 341 kts | 265° |
| 2026-04-22 20:10 | 44.15060 | 78.49838 | 24248 ft | 338 kts | 265° |
| 2026-04-22 20:11 | 44.14862 | 78.46599 | 23730 ft | 334 kts | 265° |
| 2026-04-22 20:11 | 44.14668 | 78.43396 | 23178 ft | 331 kts | 265° |
| 2026-04-22 20:11 | 44.14476 | 78.40218 | 22550 ft | 328 kts | 265° |
| 2026-04-22 20:11 | 44.14281 | 78.37066 | 21959 ft | 326 kts | 265° |
| 2026-04-22 20:12 | 44.14086 | 78.33929 | 21366 ft | 325 kts | 265° |
| 2026-04-22 20:12 | 44.13888 | 78.30806 | 20791 ft | 323 kts | 265° |
| 2026-04-22 20:12 | 44.13692 | 78.27693 | 20225 ft | 322 kts | 265° |
| 2026-04-22 20:12 | 44.13499 | 78.24595 | 19662 ft | 321 kts | 265° |
| 2026-04-22 20:13 | 44.13304 | 78.21504 | 19122 ft | 320 kts | 264° |
| 2026-04-22 20:13 | 44.12781 | 78.18535 | 18864 ft | 313 kts | 249° |
| 2026-04-22 20:13 | 44.11705 | 78.15909 | 18811 ft | 314 kts | 234° |
| 2026-04-22 20:13 | 44.10150 | 78.13767 | 18800 ft | 318 kts | 219° |
| 2026-04-22 20:14 | 44.08200 | 78.12262 | 18556 ft | 322 kts | 207° |
| 2026-04-22 20:14 | 44.06144 | 78.11043 | 18285 ft | 321 kts | 206° |
| 2026-04-22 20:14 | 44.04115 | 78.09851 | 18025 ft | 320 kts | 206° |
| 2026-04-22 20:14 | 44.02061 | 78.08643 | 17729 ft | 319 kts | 206° |
| 2026-04-22 20:15 | 44.00016 | 78.07438 | 17453 ft | 318 kts | 207° |
| 2026-04-22 20:15 | 43.97980 | 78.06237 | 17146 ft | 317 kts | 207° |
| 2026-04-22 20:15 | 43.95955 | 78.05040 | 16862 ft | 316 kts | 207° |
| 2026-04-22 20:15 | 43.93936 | 78.03849 | 16579 ft | 315 kts | 207° |
| 2026-04-22 20:16 | 43.91924 | 78.02664 | 16299 ft | 313 kts | 207° |
| 2026-04-22 20:16 | 43.89924 | 78.01483 | 16016 ft | 312 kts | 207° |
| 2026-04-22 20:16 | 43.87936 | 78.00308 | 15815 ft | 310 kts | 207° |
| 2026-04-22 20:16 | 43.85952 | 77.99138 | 15789 ft | 310 kts | 207° |
| 2026-04-22 20:17 | 43.83970 | 77.97968 | 15790 ft | 310 kts | 207° |
| 2026-04-22 20:17 | 43.82003 | 77.96752 | 15784 ft | 308 kts | 212° |
| 2026-04-22 20:17 | 43.80229 | 77.95123 | 15784 ft | 305 kts | 223° |
| 2026-04-22 20:17 | 43.78749 | 77.93106 | 15789 ft | 302 kts | 233° |
| 2026-04-22 20:18 | 43.77538 | 77.90747 | 15757 ft | 301 kts | 238° |
| 2026-04-22 20:18 | 43.76368 | 77.88300 | 15218 ft | 306 kts | 238° |
| 2026-04-22 20:18 | 43.75198 | 77.85874 | 14885 ft | 300 kts | 238° |
| 2026-04-22 20:18 | 43.74117 | 77.83425 | 14467 ft | 297 kts | 240° |
| 2026-04-22 20:19 | 43.73023 | 77.81005 | 14056 ft | 296 kts | 238° |
| 2026-04-22 20:19 | 43.71870 | 77.78645 | 13641 ft | 296 kts | 237° |
| 2026-04-22 20:19 | 43.70697 | 77.76308 | 13176 ft | 295 kts | 237° |
| 2026-04-22 20:19 | 43.69534 | 77.73986 | 12712 ft | 294 kts | 237° |
| 2026-04-22 20:20 | 43.68378 | 77.71659 | 12253 ft | 293 kts | 237° |
| 2026-04-22 20:20 | 43.67234 | 77.69337 | 11804 ft | 292 kts | 237° |
| 2026-04-22 20:20 | 43.66099 | 77.67022 | 11354 ft | 291 kts | 237° |
| 2026-04-22 20:20 | 43.64970 | 77.64707 | 10918 ft | 290 kts | 237° |
| 2026-04-22 20:21 | 43.63847 | 77.62401 | 10485 ft | 289 kts | 237° |
| 2026-04-22 20:21 | 43.62724 | 77.60098 | 10060 ft | 288 kts | 237° |
| 2026-04-22 20:21 | 43.61603 | 77.57802 | 9637 ft | 287 kts | 237° |
| 2026-04-22 20:21 | 43.60489 | 77.55520 | 9173 ft | 286 kts | 237° |
| 2026-04-22 20:22 | 43.59379 | 77.53243 | 8974 ft | 286 kts | 237° |
| 2026-04-22 20:22 | 43.58271 | 77.50968 | 8983 ft | 287 kts | 237° |
| 2026-04-22 20:22 | 43.57184 | 77.48720 | 8734 ft | 283 kts | 237° |
| 2026-04-22 20:22 | 43.56088 | 77.46424 | 8190 ft | 283 kts | 237° |
| 2026-04-22 20:23 | 43.55012 | 77.44163 | 7681 ft | 281 kts | 237° |
| 2026-04-22 20:23 | 43.53972 | 77.41978 | 7497 ft | 269 kts | 236° |
| 2026-04-22 20:23 | 43.52964 | 77.39861 | 7223 ft | 260 kts | 236° |
| 2026-04-22 20:23 | 43.51974 | 77.37786 | 6930 ft | 258 kts | 236° |
| 2026-04-22 20:24 | 43.50985 | 77.35717 | 6709 ft | 257 kts | 236° |
| 2026-04-22 20:24 | 43.50006 | 77.33673 | 6355 ft | 254 kts | 236° |
| 2026-04-22 20:24 | 43.49038 | 77.31654 | 5993 ft | 251 kts | 236° |
| 2026-04-22 20:24 | 43.48082 | 77.29658 | 5614 ft | 248 kts | 236° |
| 2026-04-22 20:25 | 43.47135 | 77.27685 | 5270 ft | 244 kts | 236° |
| 2026-04-22 20:25 | 43.46218 | 77.25798 | 5162 ft | 230 kts | 236° |
| 2026-04-22 20:25 | 43.45341 | 77.24010 | 4968 ft | 222 kts | 236° |
| 2026-04-22 20:25 | 43.44482 | 77.22263 | 4730 ft | 218 kts | 236° |
| 2026-04-22 20:26 | 43.43639 | 77.20548 | 4483 ft | 215 kts | 236° |
| 2026-04-22 20:26 | 43.42810 | 77.18862 | 4272 ft | 210 kts | 236° |
| 2026-04-22 20:26 | 43.42002 | 77.17226 | 4043 ft | 207 kts | 236° |
| 2026-04-22 20:26 | 43.41209 | 77.15624 | 3702 ft | 201 kts | 236° |
| 2026-04-22 20:27 | 43.40435 | 77.14056 | 3437 ft | 190 kts | 236° |
| 2026-04-22 20:27 | 43.39711 | 77.12589 | 3196 ft | 180 kts | 236° |
| 2026-04-22 20:27 | 43.39047 | 77.11242 | 2980 ft | 160 kts | 236° |
| 2026-04-22 20:27 | 43.38457 | 77.10049 | 2765 ft | 143 kts | 235° |
| 2026-04-22 20:28 | 43.37924 | 77.08969 | 2565 ft | 133 kts | 235° |
| 2026-04-22 20:28 | 43.37411 | 77.07926 | 2410 ft | 130 kts | 234° |
| 2026-04-22 20:28 | 43.36905 | 77.06898 | 2247 ft | 129 kts | 236° |
| 2026-04-22 20:28 | 43.36458 | 77.05992 | 2225 ft | 96 kts | 236° |
| 2026-04-22 20:29 | 43.36158 | 77.05386 | 2228 ft | 61 kts | 236° |
| 2026-04-22 20:29 | 43.35933 | 77.04931 | 2225 ft | 55 kts | 236° |
| 2026-04-22 20:29 | 43.35727 | 77.04518 | 2225 ft | 50 kts | 236° |
| 2026-04-22 20:29 | 43.35536 | 77.04131 | 2224 ft | 48 kts | 236° |
| 2026-04-22 20:30 | 43.35350 | 77.03760 | 2226 ft | 46 kts | 235° |
| 2026-04-22 20:30 | 43.35175 | 77.03404 | 2227 ft | 44 kts | 236° |
| 2026-04-22 20:30 | 43.35006 | 77.03064 | 2227 ft | 43 kts | 236° |
| 2026-04-22 20:30 | 43.34839 | 77.02726 | 2227 ft | 41 kts | 236° |
| 2026-04-22 20:31 | 43.34772 | 77.02519 | 2225 ft | 20 kts | 272° |
| 2026-04-22 20:31 | 43.34781 | 77.02324 | 2229 ft | 21 kts | 274° |
| 2026-04-22 20:31 | 43.34789 | 77.02159 | 2228 ft | 18 kts | 274° |
| 2026-04-22 20:31 | 43.34797 | 77.02001 | 2229 ft | 13 kts | 274° |
| 2026-04-22 20:32 | 43.34802 | 77.01891 | 2228 ft | 11 kts | 273° |
| 2026-04-22 20:32 | 43.34807 | 77.01778 | 2229 ft | 13 kts | 274° |
| 2026-04-22 20:32 | 43.34814 | 77.01648 | 2229 ft | 15 kts | 274° |
| 2026-04-22 20:32 | 43.34842 | 77.01519 | 2226 ft | 15 kts | 332° |
| 2026-04-22 20:33 | 43.34858 | 77.01434 | 2225 ft | 7 kts | 248° |
| 2026-04-22 20:33 | 43.34842 | 77.01384 | 2229 ft | 3 kts | 245° |
| 2026-04-22 20:33 | 43.34840 | 77.01379 | 2229 ft | 0 kts | 245° |